createdAt,value
2016-12-27T00:04:13.056Z,91.66
2016-12-27T00:09:09.514Z,92.04
2016-12-27T00:14:06.000Z,92.99
2016-12-27T00:19:02.398Z,92.61
2016-12-27T00:23:58.918Z,92.52
2016-12-27T00:28:55.659Z,91.76
2016-12-27T00:33:52.068Z,92.71
2016-12-27T00:38:48.471Z,92.52
2016-12-27T00:43:45.113Z,92.52
2016-12-27T00:48:41.614Z,92.71
2016-12-27T00:53:38.073Z,93.18
2016-12-27T00:58:35.148Z,93.18
2016-12-27T01:03:31.592Z,92.33
2016-12-27T01:08:28.194Z,92.18
2016-12-27T01:13:25.286Z,91.71
2016-12-27T01:18:21.671Z,92.57
2016-12-27T01:23:17.882Z,93.46
2016-12-27T01:28:14.592Z,93.94
2016-12-27T01:33:11.078Z,94.70
2016-12-27T01:38:07.611Z,94.79
2016-12-27T01:43:05.030Z,94.98
2016-12-27T01:48:01.417Z,94.89
2016-12-27T01:52:58.121Z,95.55
2016-12-27T01:57:54.707Z,95.26
2016-12-27T02:02:51.521Z,95.84
2016-12-27T02:07:47.929Z,95.17
2016-12-27T02:12:44.269Z,96.31
2016-12-27T02:17:41.327Z,97.16
2016-12-27T02:22:37.831Z,96.78
2016-12-27T02:27:34.211Z,96.69
2016-12-27T02:32:30.630Z,95.50
2016-12-27T02:37:27.719Z,95.50
2016-12-27T02:42:24.200Z,96.03
2016-12-27T02:47:20.905Z,95.98
2016-12-27T02:52:18.754Z,96.41
2016-12-27T02:57:15.006Z,97.73
2016-12-27T03:02:10.923Z,98.11
2016-12-27T03:07:07.375Z,98.21
2016-12-27T03:12:03.663Z,98.87
2016-12-27T03:17:00.175Z,98.73
2016-12-27T03:21:56.882Z,97.12
2016-12-27T03:26:53.541Z,98.16
2016-12-27T03:31:49.980Z,98.07
2016-12-27T03:36:46.728Z,98.35
2016-12-27T03:41:43.402Z,98.54
2016-12-27T03:46:40.240Z,98.16
2016-12-27T03:51:36.915Z,98.92
2016-12-27T03:56:33.333Z,99.49
2016-12-27T04:01:29.983Z,99.91
2016-12-27T04:06:26.159Z,99.99
2016-12-27T04:11:22.289Z,99.99
2016-12-27T04:16:19.259Z,99.99
2016-12-27T04:21:15.582Z,99.99
2016-12-27T04:26:12.080Z,99.99
2016-12-27T04:31:08.256Z,99.99
2016-12-27T04:36:04.628Z,99.99
2016-12-27T04:41:00.974Z,99.99
2016-12-27T04:45:57.330Z,99.99
2016-12-27T04:50:54.136Z,99.99
2016-12-27T04:55:50.762Z,99.99
2016-12-27T05:00:47.421Z,99.99
2016-12-27T05:05:43.837Z,99.99
2016-12-27T05:10:40.235Z,99.99
2016-12-27T05:15:36.642Z,99.99
2016-12-27T05:20:33.183Z,99.99
2016-12-27T05:25:29.575Z,99.99
2016-12-27T05:30:26.175Z,99.99
2016-12-27T05:35:22.892Z,99.99
2016-12-27T05:40:19.584Z,99.99
2016-12-27T05:45:17.031Z,99.99
2016-12-27T05:50:13.403Z,99.99
2016-12-27T05:55:09.691Z,99.99
2016-12-27T06:00:06.324Z,99.99
2016-12-27T06:05:03.033Z,99.99
2016-12-27T06:09:59.532Z,99.99
2016-12-27T06:14:55.932Z,99.99
2016-12-27T06:19:52.089Z,99.99
2016-12-27T06:24:48.592Z,99.99
2016-12-27T06:29:45.009Z,99.99
2016-12-27T06:34:41.352Z,99.99
2016-12-27T06:39:37.693Z,99.99
2016-12-27T06:44:34.385Z,99.99
2016-12-27T06:49:31.252Z,99.99
2016-12-27T06:54:27.655Z,99.99
2016-12-27T06:59:24.193Z,99.99
2016-12-27T07:04:20.835Z,99.99
2016-12-27T07:09:17.152Z,99.99
2016-12-27T07:14:13.951Z,99.99
2016-12-27T07:19:10.652Z,99.99
2016-12-27T07:24:07.711Z,99.99
2016-12-27T07:29:04.247Z,99.99
2016-12-27T07:34:00.712Z,99.99
2016-12-27T07:38:57.291Z,99.99
2016-12-27T07:43:53.467Z,99.99
2016-12-27T07:48:50.156Z,99.99
2016-12-27T07:53:46.786Z,99.99
2016-12-27T07:58:43.401Z,99.99
2016-12-27T08:03:39.648Z,99.99
2016-12-27T08:08:37.360Z,99.99
2016-12-27T08:13:33.419Z,99.99
2016-12-27T08:18:30.195Z,99.99
2016-12-27T08:23:26.723Z,99.99
2016-12-27T08:28:23.816Z,99.99
2016-12-27T08:33:21.386Z,99.99
2016-12-27T08:38:18.027Z,99.99
2016-12-27T08:43:14.668Z,99.99
2016-12-27T08:48:11.159Z,99.99
2016-12-27T08:53:08.122Z,99.99
2016-12-27T08:58:04.900Z,99.99
2016-12-27T09:03:01.449Z,99.99
2016-12-27T09:07:58.152Z,99.99
2016-12-27T09:12:54.397Z,99.99
2016-12-27T09:17:51.100Z,99.99
2016-12-27T09:22:48.404Z,99.99
2016-12-27T09:27:45.016Z,99.99
2016-12-27T09:32:41.898Z,99.99
2016-12-27T09:37:38.740Z,99.99
2016-12-27T09:42:35.593Z,99.16
2016-12-27T09:47:32.353Z,99.35
2016-12-27T09:52:28.763Z,99.99
2016-12-27T09:57:25.371Z,99.99
2016-12-27T10:02:22.773Z,99.16
2016-12-27T10:07:20.029Z,98.97
2016-12-27T10:12:17.096Z,97.22
2016-12-27T10:17:14.168Z,95.98
2016-12-27T10:22:10.773Z,95.51
2016-12-27T10:27:07.528Z,95.60
2016-12-27T10:32:03.988Z,95.70
2016-12-27T10:37:00.564Z,94.51
2016-12-27T10:41:57.446Z,93.46
2016-12-27T10:46:53.928Z,92.42
2016-12-27T10:51:50.749Z,92.66
2016-12-27T10:56:47.900Z,91.33
2016-12-27T11:01:44.322Z,90.47
2016-12-27T11:06:40.806Z,90.33
2016-12-27T11:11:37.868Z,88.80
2016-12-27T11:16:35.122Z,87.42
2016-12-27T11:21:31.993Z,87.90
2016-12-27T11:26:29.685Z,88.09
2016-12-27T11:31:26.515Z,87.61
2016-12-27T11:36:23.098Z,88.28
2016-12-27T11:41:20.369Z,88.37
2016-12-27T11:46:17.180Z,87.61
2016-12-27T11:51:13.941Z,87.52
2016-12-27T11:56:10.418Z,87.90
2016-12-27T12:01:06.539Z,89.18
2016-12-27T12:06:03.044Z,89.75
2016-12-27T12:10:59.416Z,90.52
2016-12-27T12:15:55.721Z,91.42
2016-12-27T12:20:52.180Z,91.52
2016-12-27T12:25:48.632Z,92.46
2016-12-27T12:30:44.827Z,93.41
2016-12-27T12:35:42.248Z,93.51
2016-12-27T12:40:38.595Z,93.41
2016-12-27T12:45:36.743Z,92.94
2016-12-27T12:50:33.004Z,93.60
2016-12-27T12:55:29.350Z,94.18
2016-12-27T13:00:25.874Z,93.99
2016-12-27T13:05:22.635Z,94.18
2016-12-27T13:10:19.224Z,93.37
2016-12-27T13:15:16.088Z,92.70
2016-12-27T13:20:13.534Z,91.75
2016-12-27T13:25:10.200Z,91.94
2016-12-27T13:30:07.234Z,91.85
2016-12-27T13:35:03.684Z,91.42
2016-12-27T13:40:00.369Z,90.84
2016-12-27T13:44:57.169Z,90.75
2016-12-27T13:49:53.707Z,90.84
2016-12-27T13:54:49.989Z,91.18
2016-12-27T13:59:46.533Z,90.89
2016-12-27T14:04:43.047Z,91.37
2016-12-27T14:09:41.494Z,90.99
2016-12-27T14:14:37.820Z,91.37
2016-12-27T14:19:34.997Z,92.22
2016-12-27T14:24:31.969Z,92.61
2016-12-27T14:29:28.506Z,92.32
2016-12-27T14:34:25.094Z,92.61
2016-12-27T14:39:21.416Z,93.18
2016-12-27T14:44:17.686Z,93.27
2016-12-27T14:49:14.601Z,93.75
2016-12-27T14:54:11.069Z,94.32
2016-12-27T14:59:07.725Z,94.98
2016-12-27T15:04:04.152Z,95.60
2016-12-27T15:09:00.355Z,95.84
2016-12-27T15:13:57.250Z,95.36
2016-12-27T15:18:53.858Z,96.26
2016-12-27T15:23:50.357Z,96.45
2016-12-27T15:28:46.412Z,96.65
2016-12-27T15:33:42.960Z,96.26
2016-12-27T15:38:39.455Z,96.45
2016-12-27T15:43:35.819Z,97.31
2016-12-27T15:48:32.440Z,96.93
2016-12-27T15:53:28.743Z,96.55
2016-12-27T15:58:25.092Z,96.55
2016-12-27T16:03:21.838Z,97.31
2016-12-27T16:08:18.858Z,97.31
2016-12-27T16:13:15.624Z,97.03
2016-12-27T16:18:12.158Z,97.22
2016-12-27T16:23:08.578Z,97.97
2016-12-27T16:28:05.258Z,97.50
2016-12-27T16:33:01.658Z,98.17
2016-12-27T16:37:57.778Z,99.16
2016-12-27T16:42:54.159Z,99.99
2016-12-27T16:47:50.480Z,99.99
2016-12-27T16:52:47.182Z,99.99
2016-12-27T16:57:43.920Z,99.99
2016-12-27T17:02:39.772Z,99.99
2016-12-27T17:07:36.378Z,99.99
2016-12-27T17:12:32.851Z,99.99
2016-12-27T17:17:30.111Z,99.99
2016-12-27T17:22:26.476Z,99.99
2016-12-27T17:27:22.862Z,99.99
2016-12-27T17:32:19.683Z,99.99
2016-12-27T17:37:16.069Z,99.99
2016-12-27T17:42:12.170Z,99.99
2016-12-27T17:47:08.571Z,99.99
2016-12-27T17:52:05.161Z,99.99
2016-12-27T17:57:01.720Z,99.99
2016-12-27T18:01:57.936Z,99.99
2016-12-27T18:06:54.658Z,99.99
2016-12-27T18:11:51.139Z,99.99
2016-12-27T18:16:47.616Z,99.99
2016-12-27T18:21:43.938Z,99.99
2016-12-27T18:26:40.395Z,99.99
2016-12-27T18:31:36.758Z,99.99
2016-12-27T18:36:33.311Z,99.99
2016-12-27T18:41:29.714Z,99.99
2016-12-27T18:46:25.958Z,99.99
2016-12-27T18:51:22.420Z,99.99
2016-12-27T18:56:18.750Z,99.99
2016-12-27T19:01:15.233Z,99.99
2016-12-27T19:06:11.855Z,99.99
2016-12-27T19:11:08.356Z,99.99
2016-12-27T19:16:04.698Z,99.99
2016-12-27T19:21:00.767Z,99.99
2016-12-27T19:25:57.405Z,99.99
2016-12-27T19:30:54.250Z,99.99
2016-12-27T19:35:50.717Z,99.99
2016-12-27T19:40:47.176Z,99.99
2016-12-27T19:45:43.455Z,99.99
2016-12-27T19:50:40.063Z,99.99
2016-12-27T19:55:37.151Z,99.99
2016-12-27T20:00:33.694Z,99.99
2016-12-27T20:05:30.457Z,99.99
2016-12-27T20:10:27.249Z,99.99
2016-12-27T20:15:24.005Z,99.99
2016-12-27T20:20:20.941Z,99.99
2016-12-27T20:25:17.323Z,99.99
2016-12-27T20:30:13.711Z,99.99
2016-12-27T20:35:10.685Z,99.99
2016-12-27T20:40:07.213Z,99.99
2016-12-27T20:45:03.589Z,99.99
2016-12-27T20:50:00.327Z,99.99
2016-12-27T20:54:57.512Z,99.99
2016-12-27T20:59:53.833Z,99.99
2016-12-27T21:04:50.178Z,99.99
2016-12-27T21:09:46.601Z,99.99
2016-12-27T21:14:42.995Z,99.99
2016-12-27T21:19:39.986Z,99.99
2016-12-27T21:24:36.449Z,99.99
2016-12-27T21:29:32.814Z,99.99
2016-12-27T21:34:29.404Z,99.99
2016-12-27T21:39:25.820Z,99.99
2016-12-27T21:44:22.892Z,99.99
2016-12-27T21:49:19.887Z,99.99
2016-12-27T21:54:16.441Z,99.99
2016-12-27T21:59:13.751Z,99.99
2016-12-27T22:04:10.251Z,99.99
2016-12-27T22:09:06.733Z,99.99
2016-12-27T22:14:03.430Z,99.99
2016-12-27T22:18:59.821Z,99.99
2016-12-27T22:23:56.201Z,99.99
2016-12-27T22:28:52.895Z,99.99
2016-12-27T22:33:49.351Z,99.99
2016-12-27T22:38:45.902Z,99.99
2016-12-27T22:43:44.436Z,99.99
2016-12-27T22:48:40.376Z,99.99
2016-12-27T22:53:36.855Z,99.99
2016-12-27T22:58:33.165Z,99.99
2016-12-27T23:03:29.732Z,99.99
2016-12-27T23:08:25.866Z,99.99
2016-12-27T23:13:23.310Z,99.99
2016-12-27T23:18:20.029Z,99.99
2016-12-27T23:23:16.469Z,99.99
2016-12-27T23:28:12.857Z,99.99
2016-12-27T23:33:09.717Z,99.99
2016-12-27T23:38:06.023Z,99.99
2016-12-27T23:43:02.556Z,99.99
2016-12-27T23:47:59.009Z,99.99
2016-12-27T23:52:56.225Z,99.99
2016-12-27T23:57:52.663Z,99.99
